createdAt,value
2023-05-21T00:01:29.554Z,98758.08
2023-05-21T00:03:56.941Z,98756.83
2023-05-21T00:06:24.497Z,98759.17
2023-05-21T00:08:51.869Z,98755.19
2023-05-21T00:11:19.238Z,98758.33
2023-05-21T00:13:46.507Z,98758.04
2023-05-21T00:16:13.789Z,98758.48
2023-05-21T00:18:41.021Z,98755.65
2023-05-21T00:21:08.976Z,98754.51
2023-05-21T00:23:37.257Z,98752.69
2023-05-21T00:26:04.516Z,98747.92
2023-05-21T00:28:32.093Z,98748.88
2023-05-21T00:30:59.237Z,98750.49
2023-05-21T00:33:26.328Z,98750.09
2023-05-21T00:35:53.551Z,98747.96
2023-05-21T00:38:21.729Z,98744.92
2023-05-21T00:40:50.108Z,98747.64
2023-05-21T00:43:17.376Z,98744.44
2023-05-21T00:45:46.131Z,98746.45
2023-05-21T00:48:14.451Z,98743.94
2023-05-21T00:50:41.803Z,98744.58
2023-05-21T00:53:09.570Z,98746.19
2023-05-21T00:55:37.936Z,98746.80
2023-05-21T00:58:06.856Z,98746.22
2023-05-21T01:00:35.542Z,98741.80
2023-05-21T01:03:04.421Z,98740.72
2023-05-21T01:05:32.807Z,98734.72
2023-05-21T01:08:00.995Z,98739.32
2023-05-21T01:10:28.970Z,98731.91
2023-05-21T01:12:58.191Z,98734.05
2023-05-21T01:15:25.914Z,98730.66
2023-05-21T01:17:55.357Z,98726.91
2023-05-21T01:20:24.254Z,98727.83
2023-05-21T01:22:53.447Z,98728.98
2023-05-21T01:25:21.326Z,98721.17
2023-05-21T01:27:49.809Z,98724.20
2023-05-21T01:30:18.820Z,98718.10
2023-05-21T01:32:56.849Z,98717.23
2023-05-21T01:35:29.280Z,98719.86
2023-05-21T01:38:04.830Z,98718.20
2023-05-21T01:40:38.233Z,98715.31
2023-05-21T01:43:07.947Z,98713.98
2023-05-21T01:45:39.136Z,98713.33
2023-05-21T01:48:08.917Z,98714.20
2023-05-21T01:50:50.088Z,98711.98
2023-05-21T01:53:17.456Z,98712.41
2023-05-21T01:55:45.618Z,98706.75
2023-05-21T01:58:12.881Z,98705.65
2023-05-21T02:00:40.181Z,98704.79
2023-05-21T02:03:08.407Z,98701.40
2023-05-21T02:05:36.306Z,98703.67
2023-05-21T02:08:04.886Z,98706.17
2023-05-21T02:10:32.168Z,98699.71
2023-05-21T02:12:59.603Z,98696.64
2023-05-21T02:15:26.659Z,98696.16
2023-05-21T02:17:55.283Z,98688.42
2023-05-21T02:20:23.011Z,98688.07
2023-05-21T02:22:50.407Z,98686.39
2023-05-21T02:25:21.521Z,98679.09
2023-05-21T02:27:52.973Z,98678.49
2023-05-21T02:30:20.440Z,98673.66
2023-05-21T02:32:48.571Z,98675.13
2023-05-21T02:35:15.977Z,98673.93
2023-05-21T02:37:43.645Z,98667.38
2023-05-21T02:40:12.047Z,98663.90
2023-05-21T02:42:40.922Z,98663.56
2023-05-21T02:45:10.839Z,98658.77
2023-05-21T02:47:38.832Z,98654.91
2023-05-21T02:50:08.837Z,98650.42
2023-05-21T02:52:41.122Z,98648.19
2023-05-21T02:55:09.589Z,98647.89
2023-05-21T02:57:36.745Z,98646.42
2023-05-21T03:00:05.615Z,98643.64
2023-05-21T03:02:32.884Z,98639.35
2023-05-21T03:05:00.470Z,98637.98
2023-05-21T03:07:27.840Z,98634.52
2023-05-21T03:09:55.386Z,98631.84
2023-05-21T03:12:22.644Z,98635.93
2023-05-21T03:14:51.031Z,98633.67
2023-05-21T03:17:18.599Z,98629.78
2023-05-21T03:19:45.964Z,98625.98
2023-05-21T03:22:13.229Z,98624.98
2023-05-21T03:24:40.992Z,98621.86
2023-05-21T03:27:09.325Z,98623.95
2023-05-21T03:29:37.344Z,98623.88
2023-05-21T03:32:05.954Z,98624.89
2023-05-21T03:34:35.446Z,98625.79
2023-05-21T03:37:02.911Z,98623.19
2023-05-21T03:39:30.475Z,98625.40
2023-05-21T03:41:57.837Z,98626.56
2023-05-21T03:44:40.041Z,98627.85
2023-05-21T03:47:24.662Z,98626.06
2023-05-21T03:49:52.158Z,98625.48
2023-05-21T03:52:19.403Z,98623.75
2023-05-21T03:54:46.618Z,98625.68
2023-05-21T03:57:14.207Z,98627.67
2023-05-21T03:59:41.384Z,98632.71
2023-05-21T04:02:08.772Z,98631.10
2023-05-21T04:04:36.656Z,98635.34
2023-05-21T04:07:04.135Z,98640.14
2023-05-21T04:09:31.542Z,98638.56
2023-05-21T04:11:58.897Z,98639.10
2023-05-21T04:14:26.260Z,98640.84
2023-05-21T04:16:53.415Z,98641.92
2023-05-21T04:19:21.309Z,98640.80
2023-05-21T04:21:49.367Z,98640.54
2023-05-21T04:24:16.729Z,98638.95
2023-05-21T04:27:01.080Z,98642.38
2023-05-21T04:29:29.614Z,98638.46
2023-05-21T04:31:57.546Z,98638.63
2023-05-21T04:34:33.589Z,98635.17
2023-05-21T04:37:01.876Z,98632.71
2023-05-21T04:39:31.177Z,98631.55
2023-05-21T04:42:05.296Z,98625.53
2023-05-21T04:44:33.265Z,98625.75
2023-05-21T04:47:01.859Z,98625.67
2023-05-21T04:49:29.729Z,98630.02
2023-05-21T04:51:57.185Z,98630.68
2023-05-21T04:54:24.659Z,98628.52
2023-05-21T04:56:51.909Z,98628.34
2023-05-21T04:59:19.682Z,98630.20
2023-05-21T05:01:46.963Z,98633.89
2023-05-21T05:04:14.102Z,98629.67
2023-05-21T05:06:41.464Z,98633.59
2023-05-21T05:09:08.713Z,98632.45
2023-05-21T05:11:36.173Z,98636.14
2023-05-21T05:14:04.255Z,98635.95
2023-05-21T05:16:31.852Z,98635.52
2023-05-21T05:18:59.641Z,98638.85
2023-05-21T05:21:27.163Z,98632.18
2023-05-21T05:23:54.415Z,98628.37
2023-05-21T05:26:26.070Z,98627.26
2023-05-21T05:28:53.167Z,98629.96
2023-05-21T05:31:20.567Z,98629.96
2023-05-21T05:33:48.150Z,98634.02
2023-05-21T05:36:16.122Z,98633.62
2023-05-21T05:38:53.718Z,98636.23
2023-05-21T05:41:22.409Z,98631.44
2023-05-21T05:43:49.864Z,98631.05
2023-05-21T05:46:17.431Z,98630.83
2023-05-21T05:48:45.820Z,98632.83
2023-05-21T05:51:14.928Z,98628.30
2023-05-21T05:53:42.069Z,98627.94
2023-05-21T05:56:09.638Z,98630.75
2023-05-21T05:58:37.001Z,98622.94
2023-05-21T06:01:09.168Z,98622.20
2023-05-21T06:03:36.631Z,98614.40
2023-05-21T06:06:11.590Z,98612.09
2023-05-21T06:08:40.050Z,98611.09
2023-05-21T06:11:07.811Z,98608.66
2023-05-21T06:13:35.278Z,98611.55
2023-05-21T06:16:03.612Z,98611.37
2023-05-21T06:18:30.820Z,98608.85
2023-05-21T06:20:58.023Z,98608.69
2023-05-21T06:23:25.447Z,98607.52
2023-05-21T06:25:53.106Z,98608.25
2023-05-21T06:28:20.364Z,98604.17
2023-05-21T06:30:48.652Z,98604.22
2023-05-21T06:33:16.103Z,98601.64
2023-05-21T06:35:43.815Z,98599.02
2023-05-21T06:38:11.549Z,98597.52
2023-05-21T06:40:38.599Z,98592.98
2023-05-21T06:43:06.370Z,98591.02
2023-05-21T06:45:33.580Z,98589.23
2023-05-21T06:48:05.622Z,98587.15
2023-05-21T06:50:32.959Z,98586.23
2023-05-21T06:53:01.054Z,98588.51
2023-05-21T06:55:28.904Z,98587.13
2023-05-21T06:58:21.947Z,98586.62
2023-05-21T07:00:49.220Z,98587.67
2023-05-21T07:03:16.898Z,98582.52
2023-05-21T07:05:44.252Z,98582.36
2023-05-21T07:08:12.165Z,98577.08
2023-05-21T07:10:40.382Z,98572.52
2023-05-21T07:13:08.048Z,98571.67
2023-05-21T07:15:36.013Z,98567.02
2023-05-21T07:18:03.774Z,98564.85
2023-05-21T07:20:31.156Z,98560.52
2023-05-21T07:23:00.772Z,98559.33
2023-05-21T07:25:27.821Z,98555.73
2023-05-21T07:27:55.079Z,98550.47
2023-05-21T07:30:22.451Z,98551.42
2023-05-21T07:32:49.854Z,98545.55
2023-05-21T07:35:18.696Z,98548.45
2023-05-21T07:37:46.673Z,98543.86
2023-05-21T07:40:14.951Z,98543.48
2023-05-21T07:42:42.615Z,98542.33
2023-05-21T07:45:10.421Z,98540.14
2023-05-21T07:47:40.752Z,98541.28
2023-05-21T07:50:08.494Z,98546.09
2023-05-21T07:52:36.133Z,98547.15
2023-05-21T07:55:03.920Z,98544.21
2023-05-21T07:57:32.105Z,98543.72
2023-05-21T08:00:13.825Z,98546.65
2023-05-21T08:02:47.650Z,98544.36
2023-05-21T08:05:16.195Z,98545.57
2023-05-21T08:07:43.749Z,98539.89
2023-05-21T08:10:11.021Z,98536.32
2023-05-21T08:12:38.289Z,98537.73
2023-05-21T08:15:07.258Z,98538.71
2023-05-21T08:17:37.004Z,98532.60
2023-05-21T08:20:04.966Z,98536.04
2023-05-21T08:22:32.621Z,98532.14
2023-05-21T08:25:01.019Z,98532.98
2023-05-21T08:27:28.492Z,98530.90
2023-05-21T08:29:56.336Z,98527.37
2023-05-21T08:32:23.925Z,98528.16
2023-05-21T08:34:52.701Z,98523.27
2023-05-21T08:37:52.089Z,98524.18
2023-05-21T08:40:30.401Z,98523.13
2023-05-21T08:42:57.864Z,98521.27
2023-05-21T08:45:52.892Z,98517.61
2023-05-21T08:48:23.074Z,98514.58
2023-05-21T08:50:52.282Z,98515.65
2023-05-21T08:53:28.107Z,98509.85
2023-05-21T08:55:57.272Z,98511.15
2023-05-21T08:58:26.538Z,98509.16
2023-05-21T09:00:55.620Z,98508.58
2023-05-21T09:03:23.988Z,98504.85
2023-05-21T09:05:53.095Z,98504.52
2023-05-21T09:08:32.567Z,98502.39
2023-05-21T09:11:17.520Z,98505.00
2023-05-21T09:13:50.898Z,98507.69
2023-05-21T09:16:24.578Z,98504.05
2023-05-21T09:18:52.212Z,98508.04
2023-05-21T09:21:28.738Z,98510.09
2023-05-21T09:24:01.231Z,98506.34
2023-05-21T09:26:28.696Z,98508.36
2023-05-21T09:29:00.417Z,98507.05
2023-05-21T09:31:29.552Z,98510.69
2023-05-21T09:33:57.133Z,98507.80
2023-05-21T09:36:41.385Z,98511.71
2023-05-21T09:39:10.876Z,98511.17
2023-05-21T09:41:38.242Z,98510.21
2023-05-21T09:44:05.493Z,98510.22
2023-05-21T09:46:41.014Z,98508.96
2023-05-21T09:49:26.006Z,98506.67
2023-05-21T09:51:57.889Z,98500.55
2023-05-21T09:54:26.052Z,98497.48
2023-05-21T09:56:53.631Z,98492.79
2023-05-21T09:59:21.624Z,98491.78
2023-05-21T10:01:52.611Z,98492.16
2023-05-21T10:04:22.345Z,98492.84
2023-05-21T10:06:50.425Z,98489.04
2023-05-21T10:09:20.033Z,98484.68
2023-05-21T10:11:51.388Z,98482.94
2023-05-21T10:14:25.094Z,98480.39
2023-05-21T10:16:54.250Z,98481.16
2023-05-21T10:19:23.834Z,98479.35
2023-05-21T10:21:53.196Z,98479.38
2023-05-21T10:24:23.639Z,98479.14
2023-05-21T10:26:51.104Z,98477.03
2023-05-21T10:29:19.819Z,98472.42
2023-05-21T10:31:49.154Z,98466.52
2023-05-21T10:34:16.475Z,98457.94
2023-05-21T10:36:44.948Z,98452.77
2023-05-21T10:39:14.257Z,98449.61
2023-05-21T10:41:56.385Z,98448.46
2023-05-21T10:44:55.144Z,98450.42
2023-05-21T10:48:01.510Z,98446.30
2023-05-21T10:50:40.393Z,98444.13
2023-05-21T10:53:20.252Z,98440.18
2023-05-21T10:55:59.438Z,98441.49
2023-05-21T10:59:03.666Z,98438.16
2023-05-21T11:01:35.185Z,98439.40
2023-05-21T11:04:04.228Z,98441.25
2023-05-21T11:06:31.795Z,98435.43
2023-05-21T11:09:17.480Z,98435.44
2023-05-21T11:11:53.420Z,98430.20
2023-05-21T11:14:55.781Z,98432.23
2023-05-21T11:17:43.987Z,98428.81
2023-05-21T11:20:16.286Z,98429.58
2023-05-21T11:22:46.308Z,98427.34
2023-05-21T11:25:15.212Z,98429.44
2023-05-21T11:27:42.575Z,98431.15
2023-05-21T11:30:16.487Z,98432.24
2023-05-21T11:33:10.491Z,98427.92
2023-05-21T11:35:49.984Z,98421.80
2023-05-21T11:38:17.649Z,98416.55
2023-05-21T11:40:54.402Z,98415.27
2023-05-21T11:43:21.586Z,98414.16
2023-05-21T11:45:52.528Z,98412.70
2023-05-21T11:48:26.554Z,98411.85
2023-05-21T11:50:54.610Z,98411.48
2023-05-21T11:53:21.878Z,98409.23
2023-05-21T11:55:50.046Z,98405.70
2023-05-21T11:58:19.368Z,98405.91
2023-05-21T12:00:51.009Z,98403.12
2023-05-21T12:03:18.705Z,98400.71
2023-05-21T12:05:47.125Z,98401.95
2023-05-21T12:08:26.727Z,98400.16
2023-05-21T12:11:01.327Z,98399.27
2023-05-21T12:13:28.687Z,98397.61
2023-05-21T12:15:56.377Z,98395.17
2023-05-21T12:18:23.540Z,98387.98
2023-05-21T12:20:53.841Z,98390.11
2023-05-21T12:23:24.269Z,98382.84
2023-05-21T12:25:53.126Z,98381.80
2023-05-21T12:28:24.313Z,98381.23
2023-05-21T12:30:53.006Z,98382.86
2023-05-21T12:33:21.642Z,98377.45
2023-05-21T12:35:51.932Z,98374.27
2023-05-21T12:38:19.178Z,98369.43
2023-05-21T12:40:46.441Z,98370.92
2023-05-21T12:43:13.796Z,98366.36
2023-05-21T12:45:41.424Z,98372.77
2023-05-21T12:48:09.097Z,98372.58
2023-05-21T12:50:39.983Z,98368.70
2023-05-21T12:53:09.481Z,98366.66
2023-05-21T12:55:36.569Z,98367.58
2023-05-21T12:58:07.404Z,98365.36
2023-05-21T13:00:34.809Z,98364.11
2023-05-21T13:03:04.117Z,98367.44
2023-05-21T13:05:31.718Z,98358.46
2023-05-21T13:07:59.070Z,98355.80
2023-05-21T13:10:26.267Z,98358.20
2023-05-21T13:12:53.502Z,98357.30
2023-05-21T13:15:20.737Z,98357.42
2023-05-21T13:17:49.874Z,98358.84
2023-05-21T13:20:21.132Z,98360.30
2023-05-21T13:22:50.570Z,98362.17
2023-05-21T13:25:20.629Z,98362.58
2023-05-21T13:27:50.072Z,98360.20
2023-05-21T13:30:18.606Z,98367.41
2023-05-21T13:32:46.543Z,98371.11
2023-05-21T13:35:15.862Z,98362.70
2023-05-21T13:37:43.157Z,98371.39
2023-05-21T13:40:13.952Z,98371.16
2023-05-21T13:42:41.762Z,98369.70
2023-05-21T13:45:11.404Z,98365.69
2023-05-21T13:47:40.494Z,98364.80
2023-05-21T13:50:09.227Z,98363.64
2023-05-21T13:52:37.558Z,98365.68
2023-05-21T13:55:06.136Z,98360.77
2023-05-21T13:57:33.293Z,98361.21
2023-05-21T14:00:00.777Z,98357.86
2023-05-21T14:02:28.172Z,98358.13
2023-05-21T14:04:55.592Z,98354.40
2023-05-21T14:07:22.790Z,98353.35
2023-05-21T14:09:50.011Z,98352.89
2023-05-21T14:12:18.578Z,98355.74
2023-05-21T14:14:45.946Z,98358.34
2023-05-21T14:17:12.999Z,98352.98
2023-05-21T14:19:40.870Z,98357.00
2023-05-21T14:22:08.070Z,98356.19
2023-05-21T14:24:35.278Z,98353.89
2023-05-21T14:27:02.641Z,98353.30
2023-05-21T14:29:30.209Z,98357.23
2023-05-21T14:31:57.539Z,98354.48
2023-05-21T14:34:25.029Z,98351.38
2023-05-21T14:36:53.254Z,98346.69
2023-05-21T14:39:20.669Z,98347.45
2023-05-21T14:41:48.036Z,98348.67
2023-05-21T14:44:15.133Z,98346.44
2023-05-21T14:46:42.385Z,98344.22
2023-05-21T14:49:11.436Z,98346.13
2023-05-21T14:51:38.500Z,98342.48
2023-05-21T14:54:05.653Z,98340.31
2023-05-21T14:56:32.933Z,98335.34
2023-05-21T14:59:00.269Z,98330.94
2023-05-21T15:01:27.668Z,98334.89
2023-05-21T15:03:56.478Z,98334.26
2023-05-21T15:06:23.881Z,98335.86
2023-05-21T15:08:50.935Z,98335.45
2023-05-21T15:11:18.084Z,98335.40
2023-05-21T15:13:45.961Z,98330.55
2023-05-21T15:16:13.241Z,98326.07
2023-05-21T15:18:40.480Z,98323.74
2023-05-21T15:21:07.840Z,98323.48
2023-05-21T15:23:35.298Z,98321.96
2023-05-21T15:26:02.296Z,98324.17
2023-05-21T15:28:29.616Z,98329.73
2023-05-21T15:30:57.110Z,98324.09
2023-05-21T15:33:24.128Z,98326.23
2023-05-21T15:35:51.474Z,98324.31
2023-05-21T15:38:18.852Z,98321.45
2023-05-21T15:40:47.234Z,98315.16
2023-05-21T15:43:14.493Z,98315.72
2023-05-21T15:45:41.761Z,98315.09
2023-05-21T15:48:09.164Z,98310.00
2023-05-21T15:50:37.617Z,98311.48
2023-05-21T15:53:04.750Z,98312.20
2023-05-21T15:55:33.154Z,98311.95
2023-05-21T15:58:02.241Z,98311.08
2023-05-21T16:00:30.016Z,98311.95
2023-05-21T16:02:57.407Z,98311.13
2023-05-21T16:05:25.758Z,98312.02
2023-05-21T16:07:53.017Z,98313.23
2023-05-21T16:10:20.992Z,98312.02
2023-05-21T16:12:48.355Z,98313.64
2023-05-21T16:15:16.037Z,98314.90
2023-05-21T16:17:43.118Z,98310.82
2023-05-21T16:20:11.332Z,98310.77
2023-05-21T16:22:39.733Z,98309.21
2023-05-21T16:25:07.508Z,98309.31
2023-05-21T16:27:35.789Z,98311.86
2023-05-21T16:30:03.759Z,98313.87
2023-05-21T16:32:31.041Z,98313.10
2023-05-21T16:34:58.173Z,98313.39
2023-05-21T16:37:26.456Z,98312.75
2023-05-21T16:39:53.613Z,98313.15
2023-05-21T16:42:20.865Z,98316.27
2023-05-21T16:44:48.134Z,98315.92
2023-05-21T16:47:15.586Z,98316.38
2023-05-21T16:49:42.847Z,98316.25
2023-05-21T16:52:10.139Z,98317.05
2023-05-21T16:54:37.674Z,98317.47
2023-05-21T16:57:04.834Z,98318.52
2023-05-21T16:59:31.879Z,98318.16
2023-05-21T17:01:59.422Z,98317.08
2023-05-21T17:04:26.697Z,98310.25
2023-05-21T17:06:53.652Z,98305.86
2023-05-21T17:09:21.116Z,98306.45
2023-05-21T17:11:48.490Z,98305.97
2023-05-21T17:14:32.625Z,98307.03
2023-05-21T17:17:01.415Z,98310.32
2023-05-21T17:19:28.754Z,98314.36
2023-05-21T17:21:56.651Z,98313.88
2023-05-21T17:24:24.218Z,98319.25
2023-05-21T17:26:52.711Z,98318.95
2023-05-21T17:29:19.982Z,98324.29
2023-05-21T17:31:47.383Z,98327.55
2023-05-21T17:34:16.213Z,98332.63
2023-05-21T17:36:43.484Z,98332.73
2023-05-21T17:39:10.875Z,98340.22
2023-05-21T17:41:38.296Z,98339.14
2023-05-21T17:44:05.367Z,98337.88
2023-05-21T17:46:32.781Z,98345.45
2023-05-21T17:48:59.975Z,98343.59
2023-05-21T17:51:27.021Z,98349.38
2023-05-21T17:53:54.280Z,98351.83
2023-05-21T17:56:21.946Z,98351.90
2023-05-21T17:58:51.354Z,98359.30
2023-05-21T18:01:19.549Z,98358.05
2023-05-21T18:03:47.358Z,98355.09
2023-05-21T18:06:15.381Z,98354.48
2023-05-21T18:08:42.533Z,98360.64
2023-05-21T18:11:09.892Z,98364.88
2023-05-21T18:13:36.840Z,98364.48
2023-05-21T18:16:04.520Z,98363.24
2023-05-21T18:18:31.978Z,98366.52
2023-05-21T18:20:59.230Z,98367.90
2023-05-21T18:23:28.567Z,98366.54
2023-05-21T18:25:56.000Z,98365.53
2023-05-21T18:28:23.508Z,98364.06
2023-05-21T18:30:50.719Z,98367.69
2023-05-21T18:33:17.868Z,98375.42
2023-05-21T18:35:45.337Z,98382.58
2023-05-21T18:38:13.012Z,98379.70
2023-05-21T18:40:40.590Z,98387.20
2023-05-21T18:43:10.282Z,98396.19
2023-05-21T18:45:37.436Z,98402.84
2023-05-21T18:48:05.171Z,98406.38
2023-05-21T18:50:33.921Z,98404.58
2023-05-21T18:53:01.164Z,98406.04
2023-05-21T18:55:28.624Z,98407.91
2023-05-21T18:57:55.982Z,98412.23
2023-05-21T19:00:23.776Z,98418.20
2023-05-21T19:02:51.177Z,98419.27
2023-05-21T19:05:18.624Z,98424.58
2023-05-21T19:07:46.193Z,98427.91
2023-05-21T19:10:19.230Z,98427.73
2023-05-21T19:12:46.593Z,98431.46
2023-05-21T19:15:14.161Z,98436.34
2023-05-21T19:17:41.440Z,98442.95
2023-05-21T19:20:09.984Z,98444.83
2023-05-21T19:22:37.396Z,98448.41
2023-05-21T19:25:05.025Z,98445.77
2023-05-21T19:27:32.190Z,98447.55
2023-05-21T19:29:59.650Z,98449.36
2023-05-21T19:32:27.009Z,98449.58
2023-05-21T19:34:54.277Z,98444.39
2023-05-21T19:37:21.937Z,98446.13
2023-05-21T19:39:49.812Z,98450.19
2023-05-21T19:42:19.269Z,98452.37
2023-05-21T19:44:46.379Z,98450.06
2023-05-21T19:47:13.939Z,98448.11
2023-05-21T19:49:41.198Z,98445.61
2023-05-21T19:52:09.891Z,98449.39
2023-05-21T19:54:36.967Z,98445.52
2023-05-21T19:57:04.510Z,98452.84
2023-05-21T19:59:31.666Z,98446.95
2023-05-21T20:01:59.030Z,98447.66
2023-05-21T20:04:26.817Z,98448.05
2023-05-21T20:06:54.055Z,98451.91
2023-05-21T20:09:21.321Z,98455.55
2023-05-21T20:11:48.777Z,98452.79
2023-05-21T20:14:16.041Z,98450.96
2023-05-21T20:16:46.722Z,98451.95
2023-05-21T20:19:14.820Z,98448.83
2023-05-21T20:21:42.102Z,98447.80
2023-05-21T20:24:10.687Z,98450.65
2023-05-21T20:26:39.476Z,98443.94
2023-05-21T20:29:07.585Z,98446.70
2023-05-21T20:31:35.394Z,98446.83
2023-05-21T20:34:11.899Z,98448.09
2023-05-21T20:36:43.040Z,98442.66
2023-05-21T20:39:11.734Z,98444.85
2023-05-21T20:41:39.090Z,98444.67
2023-05-21T20:44:06.640Z,98439.67
2023-05-21T20:46:37.489Z,98439.54
2023-05-21T20:49:04.876Z,98431.22
2023-05-21T20:51:32.628Z,98430.37
2023-05-21T20:53:59.914Z,98432.41
2023-05-21T20:56:40.708Z,98434.48
2023-05-21T20:59:10.469Z,98432.77
2023-05-21T21:01:39.982Z,98429.14
2023-05-21T21:04:07.191Z,98432.73
2023-05-21T21:06:37.772Z,98430.42
2023-05-21T21:09:04.923Z,98429.02
2023-05-21T21:11:32.180Z,98424.83
2023-05-21T21:13:59.439Z,98429.45
2023-05-21T21:16:31.785Z,98435.59
2023-05-21T21:18:59.271Z,98432.92
2023-05-21T21:21:27.252Z,98434.25
2023-05-21T21:23:54.300Z,98443.16
2023-05-21T21:26:21.578Z,98444.41
2023-05-21T21:28:48.718Z,98446.08
2023-05-21T21:31:17.319Z,98447.25
2023-05-21T21:33:44.612Z,98457.39
2023-05-21T21:36:12.154Z,98454.81
2023-05-21T21:38:39.399Z,98454.94
2023-05-21T21:41:07.278Z,98464.48
2023-05-21T21:43:34.517Z,98463.14
2023-05-21T21:46:01.780Z,98467.77
2023-05-21T21:48:29.038Z,98470.73
2023-05-21T21:50:58.042Z,98465.45
2023-05-21T21:53:25.412Z,98467.42
2023-05-21T21:55:52.973Z,98468.70
2023-05-21T21:58:21.566Z,98471.95
2023-05-21T22:00:48.821Z,98478.45
2023-05-21T22:03:16.178Z,98481.80
2023-05-21T22:05:43.532Z,98482.78
2023-05-21T22:08:11.107Z,98486.27
2023-05-21T22:10:38.811Z,98485.58
2023-05-21T22:13:06.632Z,98481.73
2023-05-21T22:15:34.503Z,98486.29
2023-05-21T22:18:04.623Z,98487.53
2023-05-21T22:20:35.007Z,98489.71
2023-05-21T22:23:02.212Z,98491.95
2023-05-21T22:25:29.447Z,98494.30
2023-05-21T22:27:56.733Z,98493.59
2023-05-21T22:30:23.999Z,98489.96
2023-05-21T22:32:51.289Z,98485.34
2023-05-21T22:35:19.037Z,98482.95
2023-05-21T22:37:46.685Z,98487.91
2023-05-21T22:40:13.851Z,98486.16
2023-05-21T22:42:41.205Z,98489.62
2023-05-21T22:45:09.178Z,98488.99
2023-05-21T22:47:39.068Z,98487.13
2023-05-21T22:50:07.791Z,98485.57
2023-05-21T22:52:34.842Z,98481.64
2023-05-21T22:55:02.511Z,98476.03
2023-05-21T22:57:29.864Z,98474.71
2023-05-21T22:59:57.225Z,98468.75
2023-05-21T23:02:24.501Z,98466.37
2023-05-21T23:04:51.868Z,98463.70
2023-05-21T23:07:19.110Z,98459.32
2023-05-21T23:09:46.673Z,98457.17
2023-05-21T23:12:13.930Z,98454.83
2023-05-21T23:14:41.289Z,98459.35
2023-05-21T23:17:09.259Z,98456.73
2023-05-21T23:19:36.853Z,98456.25
2023-05-21T23:22:04.697Z,98458.95
2023-05-21T23:24:34.667Z,98461.57
2023-05-21T23:27:02.908Z,98460.16
2023-05-21T23:29:30.380Z,98460.13
2023-05-21T23:31:58.087Z,98463.27
2023-05-21T23:34:25.608Z,98469.15
2023-05-21T23:36:52.854Z,98470.95
2023-05-21T23:39:20.727Z,98470.37
2023-05-21T23:41:48.392Z,98470.34
2023-05-21T23:44:15.750Z,98475.70
2023-05-21T23:46:43.113Z,98471.36
2023-05-21T23:49:11.189Z,98468.00
2023-05-21T23:51:39.181Z,98469.46
2023-05-21T23:54:07.440Z,98466.62
2023-05-21T23:56:34.709Z,98464.60
2023-05-21T23:59:01.971Z,98469.20
